Time;durP1;ratioP1;P1;durP2;ratioP2;P2;SDS_P1;SDS_P2;PMS_P1;PMS_P2;Temp;Humidity;BMP_temperature;BMP_pressure;BME280_temperature;BME280_humidity;BME280_pressure;Samples;Min_cycle;Max_cycle;Signal;HPM_P1;HPM_P2
2022/08/27 00:02:35;;;;;;;13.53;5.83;;;;;;;22.87;62.17;96533.03;5030148;28;20199;-75
2022/08/27 00:05:56;;;;;;;9.50;4.80;;;;;;;22.82;62.98;96544.06;5045319;28;20239;-71
2022/08/27 00:09:17;;;;;;;16.30;5.50;;;;;;;22.61;64.35;96548.88;5044986;28;20200;-71
2022/08/27 00:12:38;;;;;;;12.87;5.23;;;;;;;22.55;65.25;96539.75;5045281;28;20235;-72
2022/08/27 00:15:58;;;;;;;12.80;5.87;;;;;;;22.31;66.03;96509.75;5045857;28;20676;-72
2022/08/27 00:19:19;;;;;;;8.13;5.00;;;;;;;22.32;66.03;96520.13;5045058;28;20739;-72
2022/08/27 00:22:40;;;;;;;9.23;5.77;;;;;;;22.53;64.92;96533.81;5045007;28;20275;-75
2022/08/27 00:26:01;;;;;;;12.83;5.13;;;;;;;22.63;64.09;96533.72;5027121;28;20364;-73
2022/08/27 00:29:22;;;;;;;16.20;5.50;;;;;;;22.87;63.56;96543.59;5045214;28;20279;-73
2022/08/27 00:32:42;;;;;;;9.00;5.60;;;;;;;23.00;62.89;96534.25;5045293;28;20342;-72
2022/08/27 00:36:03;;;;;;;11.13;5.13;;;;;;;23.11;62.33;96538.41;5044773;28;20283;-73
2022/08/27 00:39:25;;;;;;;13.13;6.13;;;;;;;23.11;62.40;96543.69;5044673;28;20193;-72
2022/08/27 00:42:46;;;;;;;17.33;6.00;;;;;;;22.91;62.52;96539.66;5044983;28;20212;-72
2022/08/27 00:46:06;;;;;;;15.07;6.73;;;;;;;22.71;63.43;96539.03;5045663;28;20193;-72
2022/08/27 00:49:27;;;;;;;15.87;6.23;;;;;;;22.73;62.73;96536.25;5049214;28;20627;-72
2022/08/27 00:52:47;;;;;;;10.97;5.40;;;;;;;22.91;62.22;96535.22;5048490;28;20231;-72
2022/08/27 00:56:08;;;;;;;14.57;6.20;;;;;;;22.97;61.79;96545.13;5030885;28;20208;-70
2022/08/27 00:59:29;;;;;;;9.17;5.73;;;;;;;23.06;60.48;96538.88;5048452;28;20197;-71
2022/08/27 01:02:50;;;;;;;10.17;5.67;;;;;;;23.16;60.15;96541.41;5049008;28;20201;-72
2022/08/27 01:06:12;;;;;;;19.23;6.07;;;;;;;23.25;60.09;96541.28;5048425;28;20196;-74
2022/08/27 01:09:35;;;;;;;9.53;5.53;;;;;;;23.23;59.63;96543.25;5048099;28;20200;-72
2022/08/27 01:12:56;;;;;;;8.23;5.40;;;;;;;23.17;59.68;96533.31;5048432;28;20291;-71
2022/08/27 01:16:16;;;;;;;10.87;6.37;;;;;;;23.24;59.37;96539.63;5048795;28;20272;-71
2022/08/27 01:19:49;;;;;;;11.20;5.33;;;;;;;23.26;59.87;96536.81;5050367;28;20225;-72
2022/08/27 01:23:08;;;;;;;9.30;5.13;;;;;;;23.20;59.27;96537.47;5050142;28;20592;-72
2022/08/27 01:26:30;;;;;;;14.63;6.03;;;;;;;22.97;60.19;96546.94;5048457;28;20205;-73
2022/08/27 01:29:51;;;;;;;12.60;6.00;;;;;;;22.58;62.18;96539.50;5049256;28;20232;-72
2022/08/27 01:33:13;;;;;;;15.83;7.37;;;;;;;22.36;62.08;96539.94;5054302;28;20270;-72
2022/08/27 01:36:34;;;;;;;16.47;6.10;;;;;;;22.23;62.78;96534.28;5065708;28;20200;-75
2022/08/27 01:39:55;;;;;;;11.43;5.40;;;;;;;22.11;63.25;96543.41;5068798;28;20254;-76
2022/08/27 01:43:16;;;;;;;13.00;6.37;;;;;;;22.20;63.26;96531.09;5066251;28;20218;-74
2022/08/27 01:46:43;;;;;;;11.53;5.70;;;;;;;22.34;62.29;96535.84;5068691;28;20532;-73
2022/08/27 01:50:05;;;;;;;16.00;5.77;;;;;;;22.25;62.52;96532.31;5075215;28;20192;-74
2022/08/27 01:53:25;;;;;;;15.40;5.67;;;;;;;22.14;63.00;96522.00;5063488;28;20242;-74
2022/08/27 01:56:46;;;;;;;10.77;5.50;;;;;;;21.92;62.72;96506.66;5047341;28;20210;-75
2022/08/27 02:00:07;;;;;;;15.93;6.30;;;;;;;21.85;63.67;96521.41;5061724;28;20266;-74
2022/08/27 02:03:29;;;;;;;11.77;6.13;;;;;;;21.87;63.81;96524.75;5048299;28;20214;-74
2022/08/27 02:06:50;;;;;;;13.00;5.50;;;;;;;21.89;63.85;96522.78;5047657;28;20198;-75
2022/08/27 02:10:11;;;;;;;14.13;6.17;;;;;;;21.67;65.07;96526.69;5031639;28;20204;-74
2022/08/27 02:13:32;;;;;;;10.17;5.97;;;;;;;21.52;65.77;96519.44;5047268;28;20235;-75
2022/08/27 02:16:52;;;;;;;18.20;7.00;;;;;;;21.56;65.97;96523.41;5047380;28;20191;-74
2022/08/27 02:20:13;;;;;;;16.27;6.43;;;;;;;21.66;65.55;96526.81;5047634;28;20607;-75
2022/08/27 02:23:34;;;;;;;13.87;5.80;;;;;;;21.70;64.85;96520.28;5029317;28;20200;-76
2022/08/27 02:26:55;;;;;;;11.07;5.20;;;;;;;21.83;64.48;96523.38;5046933;28;20204;-75
2022/08/27 02:30:15;;;;;;;10.27;5.83;;;;;;;22.16;63.75;96529.75;5046792;28;20199;-75
2022/08/27 02:33:36;;;;;;;10.43;5.47;;;;;;;22.37;63.20;96527.59;5047188;28;20760;-75
2022/08/27 02:36:57;;;;;;;10.33;6.00;;;;;;;22.42;62.79;96525.34;5046740;28;20195;-75
2022/08/27 02:40:17;;;;;;;19.77;6.10;;;;;;;22.35;62.77;96530.41;5046369;28;20203;-76
2022/08/27 02:43:39;;;;;;;11.97;5.97;;;;;;;22.36;62.74;96525.97;5046632;28;20208;-74
2022/08/27 02:47:01;;;;;;;12.03;6.27;;;;;;;22.45;62.51;96514.44;5046954;28;20842;-74
2022/08/27 02:50:22;;;;;;;8.83;4.90;;;;;;;22.52;62.19;96523.41;5045569;28;20196;-75
2022/08/27 02:53:42;;;;;;;15.40;5.40;;;;;;;22.48;62.14;96519.44;5046211;28;20673;-73
2022/08/27 02:57:03;;;;;;;10.67;5.37;;;;;;;22.33;62.13;96528.88;5030349;28;20201;-73
2022/08/27 03:00:24;;;;;;;11.57;5.67;;;;;;;22.26;61.42;96519.91;5028912;28;20783;-74
2022/08/27 03:03:46;;;;;;;11.20;5.43;;;;;;;22.02;62.00;96527.66;5046403;28;20194;-74
2022/08/27 03:07:07;;;;;;;12.53;5.33;;;;;;;21.79;63.00;96530.75;5045926;28;20192;-75
2022/08/27 03:10:28;;;;;;;15.33;5.53;;;;;;;21.61;63.40;96529.91;5045314;28;20762;-74
2022/08/27 03:13:49;;;;;;;9.80;4.77;;;;;;;21.53;63.84;96534.28;5045791;28;20227;-73
2022/08/27 03:20:49;;;;;;;15.13;5.93;;;;;;;21.27;64.14;96536.00;5046274;28;20198;-73
2022/08/27 03:24:09;;;;;;;15.07;4.90;;;;;;;21.16;64.45;96533.53;5030350;28;20223;-73
2022/08/27 03:27:30;;;;;;;12.87;4.87;;;;;;;21.23;64.70;96545.13;5045324;28;20205;-73
2022/08/27 03:30:51;;;;;;;9.10;5.03;;;;;;;21.15;65.21;96539.78;5045709;28;20194;-74
2022/08/27 03:45:11;;;;;;;14.30;6.03;;;;;;;21.34;63.42;96531.75;5105836;27;21116;-73
2022/08/27 03:47:39;;;;;;;11.17;5.50;;;;;;;21.34;63.67;96531.75;5105871;28;20196;-73
2022/08/27 03:50:07;;;;;;;10.17;5.40;;;;;;;21.35;63.05;96533.44;5105286;28;20211;-73
2022/08/27 03:52:35;;;;;;;17.47;6.47;;;;;;;21.43;63.04;96542.22;5104544;28;20189;-73
2022/08/27 03:55:03;;;;;;;16.20;5.20;;;;;;;21.50;62.76;96547.75;5104817;28;20189;-72
2022/08/27 03:57:31;;;;;;;9.83;5.23;;;;;;;21.37;62.98;96539.38;5105822;28;20644;-72
2022/08/27 03:59:59;;;;;;;11.40;5.30;;;;;;;21.32;63.26;96544.25;5104629;28;20276;-71
2022/08/27 04:02:28;;;;;;;14.70;5.37;;;;;;;21.23;63.60;96545.13;5105596;28;20189;-73
2022/08/27 04:04:56;;;;;;;8.33;5.20;;;;;;;21.30;63.67;96551.47;5105031;28;20189;-72
2022/08/27 04:07:23;;;;;;;10.97;5.30;;;;;;;21.46;63.03;96541.94;5086525;28;20573;-72
2022/08/27 04:09:50;;;;;;;11.70;5.33;;;;;;;21.78;62.53;96552.81;5105449;28;20180;-72
2022/08/27 04:12:18;;;;;;;11.13;5.17;;;;;;;21.83;62.36;96549.75;5104329;28;21333;-72
2022/08/27 04:14:45;;;;;;;11.27;5.87;;;;;;;21.82;62.37;96553.38;5105313;28;20278;-74
2022/08/27 04:17:12;;;;;;;11.43;5.80;;;;;;;22.00;62.57;96551.56;5104322;28;20185;-72
2022/08/27 04:19:39;;;;;;;11.27;5.43;;;;;;;22.15;62.67;96557.97;5104005;28;20223;-72
2022/08/27 04:22:06;;;;;;;13.13;5.50;;;;;;;22.50;61.39;96555.22;5104754;28;20211;-73
2022/08/27 04:24:35;;;;;;;15.87;5.53;;;;;;;22.67;60.61;96560.66;5104721;28;20214;-74
2022/08/27 04:27:04;;;;;;;13.90;5.23;;;;;;;22.47;61.05;96571.38;5103854;28;20222;-73
2022/08/27 04:29:31;;;;;;;12.97;4.93;;;;;;;22.15;62.05;96565.03;5103969;28;20186;-73
2022/08/27 04:31:59;;;;;;;13.90;5.30;;;;;;;22.20;62.25;96568.88;5105336;28;20192;-74
2022/08/27 04:34:27;;;;;;;13.97;5.97;;;;;;;22.05;62.99;96565.09;5103745;28;20217;-74
2022/08/27 04:36:56;;;;;;;11.30;5.20;;;;;;;22.19;62.62;96572.50;5105181;28;20681;-74
2022/08/27 04:39:25;;;;;;;13.17;5.40;;;;;;;22.16;62.89;96572.78;5104535;28;20219;-74
2022/08/27 04:41:54;;;;;;;13.60;5.87;;;;;;;22.04;63.37;96571.38;5104328;28;20237;-74
2022/08/27 04:44:23;;;;;;;13.90;5.87;;;;;;;21.86;64.21;96570.56;5099598;28;20227;-73
2022/08/27 04:46:55;;;;;;;12.10;5.33;;;;;;;21.74;64.68;96577.81;5089864;28;20214;-73
2022/08/27 04:49:22;;;;;;;11.57;5.77;;;;;;;21.70;64.35;96571.19;5091147;28;20289;-74
2022/08/27 04:51:49;;;;;;;11.83;6.03;;;;;;;21.79;64.44;96577.38;5089910;28;20208;-75
2022/08/27 04:54:16;;;;;;;13.50;5.43;;;;;;;22.14;63.32;96574.75;5089548;28;20309;-75
2022/08/27 04:56:48;;;;;;;11.93;6.10;;;;;;;22.11;62.99;96575.06;5090674;28;20191;-73
2022/08/27 04:59:16;;;;;;;14.23;6.50;;;;;;;22.06;63.13;96576.50;5090133;28;20195;-73
2022/08/27 05:01:43;;;;;;;10.27;6.27;;;;;;;22.24;62.58;96572.00;5090700;28;20232;-73
2022/08/27 05:04:13;;;;;;;12.33;5.93;;;;;;;22.57;61.87;96581.81;5089585;28;20187;-72
2022/08/27 05:06:44;;;;;;;11.47;6.27;;;;;;;22.82;61.65;96580.19;5090692;28;20712;-74
2022/08/27 05:09:14;;;;;;;13.67;5.77;;;;;;;23.05;61.03;96582.16;5089484;28;20195;-73
2022/08/27 05:11:42;;;;;;;15.53;6.80;;;;;;;23.03;61.14;96588.56;5090390;28;20195;-74
2022/08/27 05:14:13;;;;;;;21.03;7.10;;;;;;;22.71;62.20;96583.13;5088345;28;20233;-74
2022/08/27 05:16:41;;;;;;;16.30;7.00;;;;;;;22.55;61.87;96579.34;5084906;28;21181;-73
2022/08/27 05:19:13;;;;;;;17.63;6.57;;;;;;;22.57;61.06;96584.47;5078970;28;20201;-74
2022/08/27 05:21:47;;;;;;;16.27;6.40;;;;;;;22.59;60.76;96586.00;5069227;28;20218;-73
2022/08/27 05:24:15;;;;;;;15.60;5.60;;;;;;;22.59;60.89;96593.94;5070283;28;20582;-75
2022/08/27 05:26:43;;;;;;;14.27;5.77;;;;;;;22.71;60.51;96597.13;5069436;28;20194;-74
2022/08/27 05:29:11;;;;;;;14.07;6.20;;;;;;;22.67;60.51;96595.78;5069871;28;20251;-74
2022/08/27 05:31:39;;;;;;;12.93;5.60;;;;;;;22.61;60.17;96604.31;5069645;28;20188;-73
2022/08/27 05:34:06;;;;;;;12.90;5.13;;;;;;;22.64;59.58;96594.31;5067491;28;20230;-73
2022/08/27 05:36:40;;;;;;;13.97;5.30;;;;;;;22.78;59.30;96595.53;5069603;28;20194;-72
2022/08/27 05:39:15;;;;;;;16.43;6.27;;;;;;;22.81;59.37;96600.53;5068620;28;20211;-73
2022/08/27 05:41:43;;;;;;;10.20;5.00;;;;;;;22.89;58.70;96597.09;5069683;28;20747;-73
2022/08/27 05:44:10;;;;;;;13.93;5.43;;;;;;;22.88;58.47;96596.25;5068911;28;20227;-73
2022/08/27 05:46:57;;;;;;;9.23;5.43;;;;;;;22.76;59.16;96599.31;5068776;28;20219;-73
2022/08/27 05:49:24;;;;;;;9.23;5.40;;;;;;;22.77;59.31;96607.09;5068506;28;20207;-73
2022/08/27 05:51:51;;;;;;;14.07;5.50;;;;;;;22.85;58.88;96607.16;5075283;28;20251;-72
2022/08/27 05:54:19;;;;;;;17.17;5.60;;;;;;;22.71;59.33;96604.25;5080409;28;20223;-73
2022/08/27 05:56:48;;;;;;;12.83;6.63;;;;;;;22.54;59.50;96613.81;5077306;28;20223;-72
2022/08/27 06:02:02;;;;;;;13.77;5.80;;;;;;;22.54;59.83;96612.03;5069196;28;20602;-72
2022/08/27 06:04:29;;;;;;;12.53;5.90;;;;;;;22.57;60.62;96609.06;5067862;28;20199;-72
2022/08/27 06:06:56;;;;;;;15.43;6.47;;;;;;;22.67;60.26;96604.53;5069135;28;20211;-73
2022/08/27 06:09:27;;;;;;;18.27;7.37;;;;;;;22.91;59.69;96603.88;5067903;28;20862;-73
2022/08/27 06:11:56;;;;;;;13.70;6.33;;;;;;;23.15;59.15;96611.91;5068890;28;20277;-72
2022/08/27 06:14:23;;;;;;;15.23;6.47;;;;;;;23.29;59.47;96615.78;5068139;28;20213;-73
2022/08/27 06:16:50;;;;;;;18.90;7.33;;;;;;;23.29;58.26;96607.84;5066973;28;20185;-73
2022/08/27 06:19:17;;;;;;;11.10;6.23;;;;;;;23.49;58.55;96619.88;5068770;28;20194;-73
2022/08/27 06:21:44;;;;;;;15.57;6.00;;;;;;;23.66;57.33;96618.91;5067845;28;20219;-73
2022/08/27 06:24:26;;;;;;;15.20;6.27;;;;;;;23.60;57.79;96624.84;5052578;28;20562;-72
2022/08/27 06:26:53;;;;;;;13.50;5.93;;;;;;;23.65;57.85;96632.31;5062692;28;20670;-72
2022/08/27 06:29:22;;;;;;;13.53;5.47;;;;;;;23.57;57.51;96635.75;5057484;28;20199;-73
2022/08/27 06:31:51;;;;;;;14.30;5.63;;;;;;;23.49;58.14;96630.44;5058212;28;20242;-73
2022/08/27 06:34:21;;;;;;;11.90;5.33;;;;;;;23.58;57.72;96632.13;5066379;28;20559;-75
2022/08/27 06:36:48;;;;;;;13.77;5.90;;;;;;;23.53;57.20;96625.66;5068327;28;20193;-73
2022/08/27 06:39:15;;;;;;;13.60;4.97;;;;;;;23.76;56.91;96627.53;5066086;28;20193;-73
2022/08/27 06:41:44;;;;;;;10.17;4.73;;;;;;;23.63;57.55;96629.84;5067265;28;20200;-73
2022/08/27 06:44:14;;;;;;;14.40;5.33;;;;;;;23.55;57.72;96621.88;5065780;28;20229;-74
2022/08/27 06:46:42;;;;;;;10.90;5.70;;;;;;;23.72;57.85;96631.50;5068326;28;20188;-74
2022/08/27 06:49:11;;;;;;;14.07;5.93;;;;;;;23.97;56.60;96627.94;5066352;28;20226;-73
2022/08/27 06:51:42;;;;;;;14.10;5.77;;;;;;;24.36;54.99;96636.09;5066487;28;20213;-74
2022/08/27 06:54:13;;;;;;;18.20;4.90;;;;;;;24.71;54.24;96634.97;5068246;28;20484;-74
2022/08/27 06:56:41;;;;;;;13.73;5.70;;;;;;;24.80;54.32;96626.03;5067952;28;20240;-74
2022/08/27 06:59:10;;;;;;;14.20;5.10;;;;;;;24.75;55.51;96644.25;5070244;28;20226;-74
2022/08/27 07:01:40;;;;;;;8.53;4.47;;;;;;;24.49;55.90;96638.25;5087055;28;20280;-73
2022/08/27 07:04:11;;;;;;;10.67;4.93;;;;;;;24.59;55.29;96633.63;5086829;28;20220;-73
2022/08/27 07:06:39;;;;;;;9.57;4.90;;;;;;;24.77;54.95;96629.03;5086714;28;20185;-73
2022/08/27 07:09:08;;;;;;;20.40;5.90;;;;;;;25.22;54.30;96637.22;5086721;28;20199;-72
2022/08/27 07:11:37;;;;;;;14.83;5.70;;;;;;;25.73;53.10;96639.38;5086887;28;20196;-73
2022/08/27 07:14:05;;;;;;;11.90;4.90;;;;;;;26.01;51.90;96641.53;5085486;28;20808;-74
2022/08/27 07:16:32;;;;;;;12.60;5.17;;;;;;;26.21;51.37;96645.41;5085531;28;20200;-73
2022/08/27 07:19:02;;;;;;;8.93;4.97;;;;;;;26.41;50.69;96635.97;5076248;28;20291;-75
2022/08/27 07:21:32;;;;;;;16.30;5.13;;;;;;;26.70;49.88;96640.56;5087781;28;20267;-74
2022/08/27 07:24:03;;;;;;;11.73;5.47;;;;;;;26.76;49.82;96651.31;5086222;28;20195;-74
2022/08/27 07:26:33;;;;;;;13.10;5.17;;;;;;;26.91;49.34;96643.38;5085609;28;20275;-73
2022/08/27 07:29:06;;;;;;;15.93;5.20;;;;;;;27.12;48.52;96639.00;5088396;28;20193;-72
2022/08/27 07:31:37;;;;;;;10.90;5.33;;;;;;;27.43;47.51;96646.84;5086225;28;20219;-74
2022/08/27 07:34:06;;;;;;;13.43;5.30;;;;;;;27.56;46.39;96639.03;5086180;28;20217;-74
2022/08/27 07:36:34;;;;;;;12.30;5.90;;;;;;;27.58;46.22;96646.81;5087088;28;20189;-74
2022/08/27 07:39:01;;;;;;;10.97;4.87;;;;;;;27.80;45.36;96641.38;5087500;28;20215;-73
2022/08/27 07:41:29;;;;;;;17.93;5.30;;;;;;;27.94;44.41;96642.38;5087674;28;20196;-75
2022/08/27 07:46:46;;;;;;;16.23;5.97;;;;;;;28.12;41.99;96642.81;5084861;28;20190;-73
2022/08/27 07:49:16;;;;;;;14.63;5.40;;;;;;;28.23;41.63;96644.16;5086045;28;20272;-73
2022/08/27 07:51:44;;;;;;;9.40;4.47;;;;;;;28.26;42.41;96636.63;5085960;28;20195;-73
2022/08/27 07:54:11;;;;;;;13.47;6.93;;;;;;;28.20;41.38;96634.72;5085693;28;20231;-74
2022/08/27 07:56:38;;;;;;;18.73;6.07;;;;;;;28.37;41.48;96635.28;5085451;28;20181;-73
2022/08/27 07:59:06;;;;;;;12.10;5.27;;;;;;;28.52;42.30;96646.72;5085411;28;20716;-73
2022/08/27 08:01:36;;;;;;;11.23;4.77;;;;;;;28.55;41.80;96643.66;5067575;28;20193;-73
2022/08/27 08:04:03;;;;;;;14.63;4.87;;;;;;;28.57;40.65;96645.16;5083921;28;20204;-74
2022/08/27 08:06:36;;;;;;;11.73;3.97;;;;;;;28.66;39.63;96637.84;5084126;28;20200;-73
2022/08/27 08:09:05;;;;;;;10.70;5.30;;;;;;;28.75;40.47;96636.69;5085610;28;20189;-72
2022/08/27 08:11:36;;;;;;;13.37;4.97;;;;;;;28.81;39.14;96628.75;5067455;28;20201;-73
2022/08/27 08:14:03;;;;;;;14.10;5.17;;;;;;;29.06;39.15;96639.81;5085076;28;20239;-73
2022/08/27 08:16:30;;;;;;;9.53;4.93;;;;;;;29.23;40.24;96635.03;5085132;28;20184;-73
2022/08/27 08:18:59;;;;;;;14.10;5.07;;;;;;;29.18;38.45;96635.59;5085366;28;20216;-73
2022/08/27 08:21:26;;;;;;;11.47;4.20;;;;;;;29.15;38.89;96636.00;5087246;28;20212;-72
2022/08/27 08:23:53;;;;;;;10.53;4.57;;;;;;;29.28;39.09;96630.78;5087273;28;20208;-73
2022/08/27 08:26:22;;;;;;;16.70;4.97;;;;;;;29.44;38.81;96637.63;5089040;28;20250;-73
2022/08/27 08:28:49;;;;;;;8.73;4.30;;;;;;;29.47;38.86;96640.72;5088287;28;20656;-73
2022/08/27 08:31:16;;;;;;;21.47;5.30;;;;;;;29.43;39.85;96636.78;5089231;28;20185;-74
2022/08/27 08:33:46;;;;;;;12.87;4.47;;;;;;;29.28;41.67;96644.09;5071226;28;20196;-73
2022/08/27 08:36:15;;;;;;;11.23;4.27;;;;;;;29.12;41.50;96633.69;5088854;28;20238;-73
2022/08/27 08:38:45;;;;;;;12.90;4.57;;;;;;;29.34;41.39;96642.50;5088812;28;20196;-73
2022/08/27 08:41:27;;;;;;;12.30;4.80;;;;;;;29.59;40.23;96641.00;5087323;28;20238;-73
2022/08/27 08:43:58;;;;;;;11.87;4.53;;;;;;;29.70;40.31;96635.06;5088500;28;20311;-73
2022/08/27 08:46:58;;;;;;;14.77;4.97;;;;;;;29.87;39.23;96638.25;5088169;28;20184;-72
2022/08/27 08:49:48;;;;;;;10.70;4.70;;;;;;;30.09;39.05;96637.13;5087382;28;20271;-72
2022/08/27 08:52:25;;;;;;;13.70;5.60;;;;;;;30.10;39.44;96628.91;5089072;28;20254;-72
2022/08/27 08:55:19;;;;;;;26.23;5.30;;;;;;;30.22;38.90;96629.97;5088742;28;20228;-73
2022/08/27 08:57:55;;;;;;;7.77;4.20;;;;;;;29.84;38.73;96628.81;5088483;28;20202;-73
2022/08/27 09:00:23;;;;;;;10.37;4.30;;;;;;;29.83;39.39;96635.16;5088821;28;20180;-73
2022/08/27 09:02:53;;;;;;;16.20;5.03;;;;;;;29.21;41.35;96637.91;5088393;28;20271;-72
2022/08/27 09:05:21;;;;;;;9.03;4.80;;;;;;;29.61;39.27;96638.94;5070416;28;20184;-72
2022/08/27 09:08:12;;;;;;;14.73;4.70;;;;;;;29.64;36.02;96634.03;5087308;28;20301;-73
2022/08/27 09:11:02;;;;;;;13.37;5.17;;;;;;;29.65;35.25;96635.69;5088328;28;20212;-73
2022/08/27 09:13:41;;;;;;;23.80;6.10;;;;;;;29.86;34.58;96631.28;5088215;28;20185;-73
2022/08/27 09:16:09;;;;;;;20.70;5.13;;;;;;;29.85;34.38;96625.13;5069702;28;20316;-72
2022/08/27 09:18:38;;;;;;;19.83;5.00;;;;;;;29.89;34.32;96625.53;5087817;28;20251;-74
2022/08/27 09:21:42;;;;;;;18.97;5.23;;;;;;;29.79;34.67;96625.09;5087539;28;20183;-73
2022/08/27 09:24:33;;;;;;;23.87;5.67;;;;;;;29.83;35.16;96621.81;5051842;28;20199;-74
2022/08/27 09:27:01;;;;;;;19.17;5.60;;;;;;;29.96;34.86;96631.72;5086408;28;20226;-74
2022/08/27 09:29:29;;;;;;;18.47;5.50;;;;;;;29.90;34.80;96633.38;5086143;28;20185;-74
2022/08/27 09:32:05;;;;;;;21.13;5.23;;;;;;;29.70;34.25;96619.88;5086169;28;20668;-72
2022/08/27 09:34:35;;;;;;;16.63;5.07;;;;;;;29.88;34.73;96619.38;5086180;28;20223;-73
2022/08/27 09:37:19;;;;;;;16.47;5.30;;;;;;;30.06;33.68;96637.50;5086296;28;20232;-73
2022/08/27 09:39:52;;;;;;;24.40;4.73;;;;;;;30.26;33.69;96631.19;5087968;28;20189;-72
2022/08/27 09:42:37;;;;;;;16.80;4.90;;;;;;;30.45;33.79;96617.09;5088070;28;20189;-73
2022/08/27 09:45:12;;;;;;;22.70;4.90;;;;;;;30.41;32.95;96620.38;5087420;28;20261;-73
2022/08/27 09:47:51;;;;;;;15.43;5.27;;;;;;;30.53;33.08;96622.22;5069176;28;20191;-72
2022/08/27 09:50:23;;;;;;;19.87;5.40;;;;;;;30.26;33.38;96607.16;5087609;28;20193;-73
2022/08/27 09:52:57;;;;;;;21.87;4.80;;;;;;;30.40;33.39;96624.03;5086243;28;20789;-72
2022/08/27 09:55:37;;;;;;;16.10;4.30;;;;;;;30.38;34.36;96610.06;5087475;28;20272;-73
2022/08/27 09:58:24;;;;;;;20.70;5.30;;;;;;;30.30;32.66;96623.63;5087599;28;20687;-74
2022/08/27 10:01:15;;;;;;;17.53;4.60;;;;;;;30.36;33.48;96612.94;5087414;28;20184;-73
2022/08/27 10:03:43;;;;;;;16.50;4.83;;;;;;;30.43;33.24;96620.97;5087365;28;20299;-73
2022/08/27 10:06:10;;;;;;;11.67;4.00;;;;;;;30.61;32.95;96615.03;5086017;28;20246;-74
2022/08/27 10:08:45;;;;;;;13.60;4.53;;;;;;;30.92;32.56;96623.28;5087435;28;20192;-74
2022/08/27 10:11:24;;;;;;;18.20;4.20;;;;;;;30.94;32.13;96619.38;5087057;28;20184;-74
2022/08/27 10:14:27;;;;;;;13.73;4.10;;;;;;;30.95;32.58;96628.25;5086960;28;20608;-73
2022/08/27 10:17:13;;;;;;;14.13;4.43;;;;;;;31.11;32.05;96625.13;5087313;28;20189;-74
2022/08/27 10:20:00;;;;;;;10.30;4.33;;;;;;;31.05;32.45;96625.97;5086888;28;20679;-74
2022/08/27 10:22:41;;;;;;;17.53;4.97;;;;;;;31.13;33.41;96625.75;5086931;28;20223;-73
2022/08/27 10:25:43;;;;;;;20.03;5.83;;;;;;;31.42;31.90;96629.84;5086739;28;20697;-74
2022/08/27 10:28:10;;;;;;;13.07;4.33;;;;;;;31.58;32.02;96611.47;5068673;28;20269;-74
2022/08/27 10:30:37;;;;;;;17.50;4.87;;;;;;;31.66;31.75;96611.22;5085699;28;20196;-73
2022/08/27 10:33:36;;;;;;;14.53;4.47;;;;;;;31.45;32.32;96622.19;5086737;28;20241;-74
2022/08/27 10:36:31;;;;;;;13.10;4.27;;;;;;;31.35;32.19;96629.81;5066860;28;20251;-73
2022/08/27 10:39:05;;;;;;;18.27;4.87;;;;;;;31.38;31.90;96624.06;5086938;28;20584;-74
2022/08/27 10:41:41;;;;;;;12.37;4.57;;;;;;;31.56;32.34;96629.59;5087367;28;20184;-74
2022/08/27 10:44:24;;;;;;;18.60;5.07;;;;;;;31.51;32.47;96618.69;5086111;28;20226;-73
2022/08/27 10:47:09;;;;;;;14.97;4.17;;;;;;;31.55;32.12;96622.56;5086791;28;20597;-73
2022/08/27 10:49:57;;;;;;;14.87;4.43;;;;;;;31.38;32.22;96615.19;5086602;28;20189;-73
2022/08/27 10:52:46;;;;;;;11.03;4.30;;;;;;;31.09;32.09;96625.34;5086549;28;20211;-73
2022/08/27 10:55:22;;;;;;;20.13;4.83;;;;;;;31.27;31.81;96620.16;5086005;28;20722;-73
2022/08/27 10:58:35;;;;;;;23.70;5.37;;;;;;;31.45;32.09;96627.56;5086361;28;20199;-72
2022/08/27 11:01:10;;;;;;;18.43;4.93;;;;;;;31.53;31.71;96626.53;5085088;28;20204;-72
2022/08/27 11:03:51;;;;;;;12.50;4.50;;;;;;;31.41;31.72;96633.56;5086132;28;20669;-73
2022/08/27 11:06:30;;;;;;;13.10;4.40;;;;;;;31.30;31.58;96630.44;5086338;28;20258;-73
2022/08/27 11:09:24;;;;;;;11.17;4.77;;;;;;;31.22;31.84;96625.31;5086689;28;20388;-73
2022/08/27 11:11:56;;;;;;;14.93;4.90;;;;;;;31.23;32.21;96620.78;5086023;28;20207;-73
2022/08/27 11:15:03;;;;;;;10.23;4.20;;;;;;;30.57;32.33;96630.66;5086070;28;20231;-72
2022/08/27 11:17:40;;;;;;;16.07;5.03;;;;;;;30.58;31.81;96628.81;5067802;28;20286;-74
2022/08/27 11:20:28;;;;;;;15.53;4.40;;;;;;;31.22;31.22;96624.50;5068013;28;20248;-72
2022/08/27 11:23:03;;;;;;;13.33;4.77;;;;;;;31.53;31.84;96616.59;5086259;28;20194;-73
2022/08/27 11:25:42;;;;;;;11.87;4.43;;;;;;;31.65;31.14;96625.66;5086131;28;20195;-72
2022/08/27 11:28:10;;;;;;;15.37;5.70;;;;;;;31.81;31.45;96613.63;5084864;28;20180;-73
2022/08/27 11:31:03;;;;;;;16.00;5.50;;;;;;;31.85;32.27;96615.69;5084912;28;20610;-74
2022/08/27 11:33:53;;;;;;;17.30;5.03;;;;;;;32.19;31.22;96613.69;5080221;28;20197;-74
2022/08/27 11:36:35;;;;;;;16.83;5.10;;;;;;;32.47;31.27;96608.78;5078476;28;20221;-74
2022/08/27 11:39:42;;;;;;;14.87;4.47;;;;;;;32.50;30.66;96603.81;5073373;28;20275;-74
2022/08/27 11:42:33;;;;;;;13.20;4.53;;;;;;;32.82;29.78;96600.06;5085553;28;20188;-73
2022/08/27 11:45:57;;;;;;;14.07;4.57;;;;;;;33.05;29.72;96601.34;5080625;28;20224;-72
2022/08/27 11:49:18;;;;;;;10.93;4.03;;;;;;;33.11;29.72;96595.91;5072509;28;20252;-74
2022/08/27 11:52:06;;;;;;;11.88;3.95;;;;;;;32.77;30.85;96610.63;5075293;28;20231;-74
2022/08/27 11:54:50;;;;;;;18.88;5.68;;;;;;;31.87;32.28;96600.22;5039705;28;20193;-73
2022/08/27 11:57:31;;;;;;;14.40;4.82;;;;;;;31.81;31.86;96609.09;5049998;28;20671;-73
2022/08/27 12:00:12;;;;;;;14.00;4.77;;;;;;;31.46;32.09;96604.28;5067710;28;20197;-72
2022/08/27 12:02:39;;;;;;;13.40;5.53;;;;;;;31.15;33.05;96610.31;5086788;28;20253;-72
2022/08/27 12:05:22;;;;;;;10.50;4.13;;;;;;;30.97;32.38;96607.44;5071592;28;20230;-72
2022/08/27 12:07:52;;;;;;;13.33;4.07;;;;;;;30.82;33.53;96606.81;5089805;28;20378;-72
2022/08/27 12:10:36;;;;;;;13.00;4.67;;;;;;;30.57;33.09;96597.75;5089798;28;20188;-73
2022/08/27 12:13:18;;;;;;;13.97;5.10;;;;;;;30.69;33.48;96599.59;5071734;28;20183;-72
2022/08/27 12:15:48;;;;;;;14.80;4.37;;;;;;;30.81;32.53;96594.47;5089618;28;20224;-72
2022/08/27 12:18:25;;;;;;;14.47;4.57;;;;;;;31.00;31.69;96594.47;5089745;28;20203;-72
2022/08/27 12:21:02;;;;;;;12.87;6.73;;;;;;;31.38;31.42;96594.59;5089455;28;20679;-72
2022/08/27 12:23:45;;;;;;;11.00;4.87;;;;;;;31.40;31.49;96581.88;5085173;28;20261;-73
2022/08/27 12:26:30;;;;;;;17.00;4.17;;;;;;;31.47;30.50;96584.53;5079083;28;20220;-72
2022/08/27 12:29:24;;;;;;;13.60;4.70;;;;;;;31.81;29.92;96579.66;5048950;28;20604;-73
2022/08/27 12:32:43;;;;;;;15.57;4.33;;;;;;;32.00;30.64;96581.44;5049406;28;20827;-74
2022/08/27 12:35:20;;;;;;;17.47;5.30;;;;;;;32.14;30.26;96563.41;5078215;28;20277;-74
2022/08/27 12:37:53;;;;;;;11.73;5.40;;;;;;;32.17;30.19;96571.00;5088960;28;20250;-74
2022/08/27 12:40:41;;;;;;;14.03;4.73;;;;;;;32.15;31.21;96577.63;5089025;28;20994;-71
2022/08/27 12:43:14;;;;;;;14.27;4.30;;;;;;;32.30;30.16;96576.28;5078175;28;20743;-74
2022/08/27 12:45:47;;;;;;;17.37;4.93;;;;;;;32.54;29.61;96572.84;5051024;28;20761;-74
2022/08/27 12:48:19;;;;;;;17.52;3.83;;;;;;;32.59;28.10;96575.69;5077668;28;20220;-75
2022/08/27 12:50:52;;;;;;;21.63;5.37;;;;;;;32.53;28.34;96578.41;5081557;28;20200;-72
2022/08/27 12:53:51;;;;;;;18.63;5.88;;;;;;;32.67;29.21;96583.47;5087839;28;20577;-71
2022/08/27 12:56:57;;;;;;;18.10;4.95;;;;;;;32.28;29.78;96573.00;5075192;28;20746;-75
2022/08/27 12:59:46;;;;;;;19.37;5.23;;;;;;;31.90;31.16;96578.34;5072023;28;20210;-77
2022/08/27 13:02:39;;;;;;;16.80;5.13;;;;;;;31.97;30.66;96576.50;5069491;28;20204;-75
2022/08/27 13:05:09;;;;;;;18.10;5.10;;;;;;;32.06;30.45;96577.91;5068233;28;20236;-73
2022/08/27 13:07:45;;;;;;;17.15;5.50;;;;;;;32.17;29.53;96572.88;5068599;28;20220;-75
2022/08/27 13:10:13;;;;;;;15.38;5.18;;;;;;;32.22;29.71;96573.88;5069053;28;20185;-73
2022/08/27 13:12:42;;;;;;;20.35;4.85;;;;;;;32.35;29.62;96578.31;5067085;28;20295;-71